createdAt,value
2022-12-25T00:02:03.926Z,23.43
2022-12-25T00:04:30.696Z,23.23
2022-12-25T00:06:57.439Z,22.70
2022-12-25T00:09:24.110Z,21.33
2022-12-25T00:11:50.806Z,20.60
2022-12-25T00:14:17.732Z,20.07
2022-12-25T00:16:45.112Z,19.93
2022-12-25T00:19:11.880Z,20.83
2022-12-25T00:21:38.726Z,18.83
2022-12-25T00:24:05.764Z,19.80
2022-12-25T00:26:32.559Z,19.90
2022-12-25T00:28:59.725Z,18.10
2022-12-25T00:31:27.070Z,19.93
2022-12-25T00:33:53.856Z,21.73
2022-12-25T00:36:22.920Z,21.90
2022-12-25T00:38:49.651Z,22.17
2022-12-25T00:41:39.413Z,23.43
2022-12-25T00:44:07.148Z,21.43
2022-12-25T00:46:34.027Z,23.43
2022-12-25T00:49:01.142Z,21.40
2022-12-25T00:51:28.316Z,21.70
2022-12-25T00:53:54.992Z,22.67
2022-12-25T00:56:21.719Z,21.83
2022-12-25T00:58:48.574Z,22.93
2022-12-25T01:01:15.412Z,20.53
2022-12-25T01:03:42.261Z,21.37
2022-12-25T01:06:11.152Z,21.30
2022-12-25T01:09:00.164Z,19.93
2022-12-25T01:11:27.397Z,20.90
2022-12-25T01:13:54.070Z,20.37
2022-12-25T01:16:20.979Z,20.67
2022-12-25T01:18:47.675Z,20.83
2022-12-25T01:21:16.662Z,21.13
2022-12-25T01:23:44.410Z,19.80
2022-12-25T01:26:12.854Z,20.30
2022-12-25T01:28:40.123Z,21.93
2022-12-25T01:31:10.581Z,20.97
2022-12-25T01:33:38.706Z,20.37
2022-12-25T01:36:16.642Z,23.30
2022-12-25T01:38:44.326Z,18.93
2022-12-25T01:41:13.506Z,22.03
2022-12-25T01:43:57.022Z,20.40
2022-12-25T01:46:23.803Z,18.27
2022-12-25T01:48:51.366Z,19.53
2022-12-25T01:51:33.441Z,19.50
2022-12-25T01:54:05.487Z,19.47
2022-12-25T01:56:33.881Z,20.13
2022-12-25T01:59:02.475Z,20.03
2022-12-25T02:01:29.492Z,19.37
2022-12-25T02:04:04.559Z,20.97
2022-12-25T02:06:31.701Z,20.37
2022-12-25T02:08:59.463Z,19.27
2022-12-25T02:11:45.064Z,19.27
2022-12-25T02:14:12.013Z,19.40
2022-12-25T02:16:58.330Z,18.20
2022-12-25T02:19:39.216Z,19.07
2022-12-25T02:22:41.378Z,19.03
2022-12-25T02:25:45.235Z,20.30
2022-12-25T02:28:28.012Z,19.53
2022-12-25T02:31:12.855Z,18.80
2022-12-25T02:34:05.096Z,18.37
2022-12-25T02:37:00.882Z,18.50
2022-12-25T02:39:57.079Z,17.97
2022-12-25T02:43:05.634Z,17.03
2022-12-25T02:46:00.866Z,19.30
2022-12-25T02:48:51.200Z,17.77
2022-12-25T02:51:39.252Z,19.20
2022-12-25T02:54:30.254Z,18.40
2022-12-25T02:57:19.229Z,16.50
2022-12-25T03:00:07.760Z,19.10
2022-12-25T03:02:53.761Z,18.10
2022-12-25T03:05:43.624Z,18.03
2022-12-25T03:08:17.272Z,18.10
2022-12-25T03:11:08.443Z,18.27
2022-12-25T03:13:39.739Z,17.63
2022-12-25T03:16:26.451Z,18.37
2022-12-25T03:18:55.754Z,20.53
2022-12-25T03:21:41.217Z,18.80
2022-12-25T03:24:26.762Z,19.80
2022-12-25T03:26:56.707Z,22.47
2022-12-25T03:29:51.397Z,21.17
2022-12-25T03:32:29.022Z,20.70
2022-12-25T03:35:25.778Z,21.07
2022-12-25T03:38:37.273Z,21.37
2022-12-25T03:41:29.737Z,21.90
2022-12-25T03:44:21.457Z,22.07
2022-12-25T03:47:13.405Z,21.23
2022-12-25T03:50:07.027Z,22.70
2022-12-25T03:52:53.971Z,20.97
2022-12-25T03:55:41.182Z,21.93
2022-12-25T03:58:40.401Z,22.83
2022-12-25T04:01:26.119Z,22.37
2022-12-25T04:04:11.668Z,21.73
2022-12-25T04:06:57.082Z,20.27
2022-12-25T04:09:42.650Z,22.97
2022-12-25T04:12:28.097Z,21.97
2022-12-25T04:15:13.692Z,22.27
2022-12-25T04:17:59.078Z,22.13
2022-12-25T04:20:44.298Z,20.13
2022-12-25T04:23:29.856Z,22.40
2022-12-25T04:26:18.277Z,20.60
2022-12-25T04:29:03.713Z,21.07
2022-12-25T04:31:49.188Z,21.17
2022-12-25T04:34:34.768Z,20.43
2022-12-25T04:37:01.440Z,20.03
2022-12-25T04:39:28.118Z,20.40
2022-12-25T04:41:54.782Z,19.43
2022-12-25T04:44:21.502Z,19.83
2022-12-25T04:46:48.238Z,18.40
2022-12-25T04:49:15.003Z,17.97
2022-12-25T04:51:41.685Z,19.57
2022-12-25T04:54:08.404Z,17.03
2022-12-25T04:56:39.991Z,17.53
2022-12-25T04:59:08.657Z,15.73
2022-12-25T05:01:36.031Z,15.20
2022-12-25T05:04:02.871Z,14.87
2022-12-25T05:06:29.651Z,14.07
2022-12-25T05:08:56.412Z,13.47
2022-12-25T05:11:23.226Z,13.70
2022-12-25T05:13:49.978Z,13.13
2022-12-25T05:16:18.797Z,12.87
2022-12-25T05:18:47.825Z,12.17
2022-12-25T05:21:14.553Z,11.60
2022-12-25T05:23:48.520Z,11.87
2022-12-25T05:26:17.426Z,14.20
2022-12-25T05:28:44.227Z,14.77
2022-12-25T05:31:11.235Z,16.80
2022-12-25T05:33:37.983Z,17.00
2022-12-25T05:36:06.791Z,16.10
2022-12-25T05:38:33.545Z,15.57
2022-12-25T05:41:00.893Z,16.77
2022-12-25T05:43:28.864Z,16.23
2022-12-25T05:45:55.859Z,14.57
2022-12-25T05:48:22.939Z,15.30
2022-12-25T05:50:49.958Z,15.97
2022-12-25T05:53:16.792Z,14.57
2022-12-25T05:55:44.158Z,15.30
2022-12-25T05:58:12.279Z,14.67
2022-12-25T06:00:40.352Z,14.47
2022-12-25T06:03:07.174Z,13.73
2022-12-25T06:05:33.956Z,14.53
2022-12-25T06:08:00.677Z,14.00
2022-12-25T06:10:27.358Z,13.37
2022-12-25T06:12:55.134Z,13.70
2022-12-25T06:15:21.823Z,13.30
2022-12-25T06:17:48.581Z,13.60
2022-12-25T06:20:15.513Z,12.87
2022-12-25T06:22:42.286Z,13.07
2022-12-25T06:25:09.608Z,12.97
2022-12-25T06:27:36.673Z,13.07
2022-12-25T06:30:05.083Z,12.77
2022-12-25T06:32:31.805Z,12.27
2022-12-25T06:34:58.448Z,12.63
2022-12-25T06:37:25.133Z,13.10
2022-12-25T06:39:51.868Z,13.07
2022-12-25T06:42:18.568Z,13.53
2022-12-25T06:44:45.304Z,14.00
2022-12-25T06:47:13.330Z,13.80
2022-12-25T06:49:40.043Z,13.57
2022-12-25T06:52:06.773Z,14.47
2022-12-25T06:54:33.510Z,13.43
2022-12-25T06:57:00.176Z,14.37
2022-12-25T06:59:26.847Z,14.50
2022-12-25T07:01:56.317Z,14.00
2022-12-25T07:04:38.694Z,15.53
2022-12-25T07:07:09.278Z,15.27
2022-12-25T07:09:38.738Z,14.97
2022-12-25T07:12:24.538Z,16.00
2022-12-25T07:14:54.542Z,18.13
2022-12-25T07:17:22.458Z,18.10
2022-12-25T07:19:49.426Z,18.43
2022-12-25T07:22:25.492Z,18.17
2022-12-25T07:24:52.137Z,18.63
2022-12-25T07:27:25.042Z,18.43
2022-12-25T07:29:51.680Z,18.23
2022-12-25T07:32:18.339Z,19.07
2022-12-25T07:34:45.037Z,18.70
2022-12-25T07:37:11.861Z,17.57
2022-12-25T07:39:38.555Z,18.63
2022-12-25T07:42:06.828Z,17.17
2022-12-25T07:44:33.639Z,17.90
2022-12-25T07:47:00.344Z,17.13
2022-12-25T07:49:27.029Z,17.47
2022-12-25T07:51:53.788Z,17.60
2022-12-25T07:54:20.845Z,17.60
2022-12-25T07:56:51.679Z,16.57
2022-12-25T07:59:19.175Z,15.27
2022-12-25T08:01:46.511Z,16.43
2022-12-25T08:04:13.365Z,15.83
2022-12-25T08:06:40.089Z,17.03
2022-12-25T08:09:09.216Z,15.50
2022-12-25T08:11:36.864Z,14.97
2022-12-25T08:14:09.134Z,15.97
2022-12-25T08:16:39.743Z,15.40
2022-12-25T08:19:06.658Z,16.63
2022-12-25T08:21:33.337Z,15.43
2022-12-25T08:23:59.996Z,16.60
2022-12-25T08:26:26.656Z,16.17
2022-12-25T08:28:53.447Z,15.10
2022-12-25T08:31:24.533Z,15.97
2022-12-25T08:33:53.343Z,15.03
2022-12-25T08:36:20.319Z,16.17
2022-12-25T08:38:47.981Z,15.43
2022-12-25T08:41:15.899Z,14.97
2022-12-25T08:43:42.818Z,14.57
2022-12-25T08:46:09.987Z,15.47
2022-12-25T08:48:37.452Z,15.83
2022-12-25T08:51:04.917Z,15.10
2022-12-25T08:53:31.717Z,15.00
2022-12-25T08:56:00.716Z,16.70
2022-12-25T08:58:28.265Z,91.27
2022-12-25T09:01:04.977Z,67.07
2022-12-25T09:03:34.629Z,29.97
2022-12-25T09:06:06.459Z,63.83
2022-12-25T09:08:33.798Z,35.13
2022-12-25T09:11:09.483Z,24.73
2022-12-25T09:13:36.873Z,18.10
2022-12-25T09:16:12.403Z,14.10
2022-12-25T09:18:39.286Z,16.47
2022-12-25T09:21:09.595Z,16.50
2022-12-25T09:23:36.565Z,14.40
2022-12-25T09:26:06.156Z,14.73
2022-12-25T09:28:32.900Z,13.47
2022-12-25T09:30:59.898Z,13.93
2022-12-25T09:33:26.777Z,13.27
2022-12-25T09:36:02.297Z,13.07
2022-12-25T09:38:30.064Z,12.93
2022-12-25T09:41:02.511Z,13.20
2022-12-25T09:43:33.299Z,13.00
2022-12-25T09:46:02.410Z,12.67
2022-12-25T09:48:32.698Z,13.93
2022-12-25T09:51:22.672Z,13.60
2022-12-25T09:53:56.086Z,12.67
2022-12-25T09:56:25.876Z,13.20
2022-12-25T09:58:53.811Z,12.90
2022-12-25T10:01:39.604Z,12.63
2022-12-25T10:04:44.150Z,14.20
2022-12-25T10:07:16.868Z,13.17
2022-12-25T10:10:06.463Z,12.67
2022-12-25T10:12:53.760Z,13.10
2022-12-25T10:15:32.300Z,13.27
2022-12-25T10:18:04.755Z,12.60
2022-12-25T10:20:57.150Z,15.50
2022-12-25T10:23:33.793Z,14.60
2022-12-25T10:26:00.695Z,15.47
2022-12-25T10:28:38.815Z,13.33
2022-12-25T10:31:21.121Z,13.47
2022-12-25T10:33:50.113Z,13.43
2022-12-25T10:36:20.851Z,13.50
2022-12-25T10:38:48.139Z,13.60
2022-12-25T10:41:35.601Z,14.10
2022-12-25T10:44:13.750Z,13.60
2022-12-25T10:46:41.155Z,14.27
2022-12-25T10:49:14.944Z,14.03
2022-12-25T10:51:41.661Z,15.40
2022-12-25T10:54:28.266Z,14.23
2022-12-25T10:56:57.319Z,13.37
2022-12-25T10:59:26.435Z,15.33
2022-12-25T11:01:55.578Z,15.17
2022-12-25T11:04:28.430Z,14.50
2022-12-25T11:07:02.918Z,15.00
2022-12-25T11:09:29.753Z,14.87
2022-12-25T11:11:56.744Z,15.17
2022-12-25T11:14:23.829Z,13.90
2022-12-25T11:16:50.576Z,14.80
2022-12-25T11:19:27.291Z,14.53
2022-12-25T11:22:00.089Z,13.70
2022-12-25T11:24:29.420Z,14.30
2022-12-25T11:26:58.536Z,14.40
2022-12-25T11:29:31.444Z,14.00
2022-12-25T11:32:00.499Z,13.33
2022-12-25T11:34:49.513Z,13.63
2022-12-25T11:37:20.064Z,13.97
2022-12-25T11:39:46.810Z,15.23
2022-12-25T11:42:24.067Z,15.73
2022-12-25T11:45:07.482Z,15.73
2022-12-25T11:47:54.546Z,14.63
2022-12-25T11:50:38.437Z,15.00
2022-12-25T11:53:19.899Z,15.13
2022-12-25T11:55:58.284Z,15.10
2022-12-25T11:58:35.184Z,14.60
2022-12-25T12:01:06.184Z,15.23
2022-12-25T12:03:39.758Z,14.93
2022-12-25T12:06:41.805Z,16.07
2022-12-25T12:09:44.293Z,16.17
2022-12-25T12:12:34.616Z,14.90
2022-12-25T12:15:29.315Z,14.73
2022-12-25T12:18:07.525Z,14.00
2022-12-25T12:20:36.002Z,14.87
2022-12-25T12:23:11.172Z,14.33
2022-12-25T12:25:42.362Z,14.73
2022-12-25T12:28:24.325Z,15.53
2022-12-25T12:30:58.491Z,17.03
2022-12-25T12:33:30.378Z,19.70
2022-12-25T12:35:57.582Z,18.47
2022-12-25T12:38:25.569Z,15.77
2022-12-25T12:41:04.194Z,14.77
2022-12-25T12:43:45.183Z,14.47
2022-12-25T12:46:31.006Z,15.43
2022-12-25T12:49:20.055Z,14.90
2022-12-25T12:51:46.893Z,15.97
2022-12-25T12:54:24.169Z,14.97
2022-12-25T12:56:58.928Z,16.97
2022-12-25T12:59:27.200Z,16.23
2022-12-25T13:01:56.951Z,15.70
2022-12-25T13:04:42.774Z,16.97
2022-12-25T13:07:51.195Z,18.17
2022-12-25T13:10:31.283Z,18.63
2022-12-25T13:13:03.072Z,17.27
2022-12-25T13:15:34.162Z,17.47
2022-12-25T13:18:11.263Z,19.37
2022-12-25T13:20:55.142Z,17.30
2022-12-25T13:23:33.503Z,18.67
2022-12-25T13:26:17.426Z,18.63
2022-12-25T13:28:47.170Z,19.33
2022-12-25T13:31:14.177Z,18.27
2022-12-25T13:33:45.689Z,19.40
2022-12-25T13:36:13.705Z,18.33
2022-12-25T13:38:45.927Z,19.60
2022-12-25T13:41:37.192Z,20.27
2022-12-25T13:44:14.695Z,18.73
2022-12-25T13:46:41.472Z,21.73
2022-12-25T13:49:17.451Z,22.70
2022-12-25T13:51:44.855Z,22.07
2022-12-25T13:54:14.336Z,19.67
2022-12-25T13:56:53.265Z,19.97
2022-12-25T13:59:22.991Z,21.00
2022-12-25T14:01:51.608Z,21.87
2022-12-25T14:04:24.040Z,21.27
2022-12-25T14:06:52.304Z,21.20
2022-12-25T14:09:20.032Z,20.50
2022-12-25T14:11:51.428Z,21.63
2022-12-25T14:14:22.908Z,21.07
2022-12-25T14:16:53.606Z,38.60
2022-12-25T14:19:27.649Z,27.03
2022-12-25T14:22:11.110Z,23.73
2022-12-25T14:24:39.663Z,21.00
2022-12-25T14:27:17.223Z,20.97
2022-12-25T14:29:46.850Z,19.73
2022-12-25T14:32:22.560Z,22.50
2022-12-25T14:34:53.783Z,22.83
2022-12-25T14:37:23.928Z,22.93
2022-12-25T14:40:21.616Z,21.53
2022-12-25T14:42:56.932Z,22.70
2022-12-25T14:45:28.905Z,22.10
2022-12-25T14:48:02.856Z,23.63
2022-12-25T14:50:41.214Z,30.10
2022-12-25T14:53:19.594Z,37.10
2022-12-25T14:55:50.552Z,34.73
2022-12-25T14:58:27.846Z,31.97
2022-12-25T15:00:57.732Z,29.80
2022-12-25T15:03:37.013Z,30.73
2022-12-25T15:06:06.445Z,27.70
2022-12-25T15:08:34.885Z,26.80
2022-12-25T15:11:03.221Z,27.13
2022-12-25T15:13:31.372Z,26.83
2022-12-25T15:16:11.520Z,26.77
2022-12-25T15:18:41.627Z,27.20
2022-12-25T15:21:15.784Z,26.23
2022-12-25T15:23:42.627Z,28.50
2022-12-25T15:26:13.360Z,30.10
2022-12-25T15:28:40.025Z,30.80
2022-12-25T15:31:20.016Z,30.20
2022-12-25T15:33:46.808Z,30.43
2022-12-25T15:36:13.916Z,28.67
2022-12-25T15:38:40.724Z,30.27
2022-12-25T15:41:53.708Z,27.93
2022-12-25T15:44:20.758Z,28.10
2022-12-25T15:46:47.688Z,29.03
2022-12-25T15:49:15.413Z,27.87
2022-12-25T15:51:43.450Z,28.00
2022-12-25T15:54:10.920Z,26.77
2022-12-25T15:56:51.479Z,25.47
2022-12-25T15:59:19.583Z,25.53
2022-12-25T16:01:52.697Z,26.97
2022-12-25T16:04:20.212Z,27.50
2022-12-25T16:06:47.036Z,26.07
2022-12-25T16:09:15.231Z,29.33
2022-12-25T16:11:42.501Z,33.03
2022-12-25T16:14:09.862Z,27.00
2022-12-25T16:16:36.873Z,29.20
2022-12-25T16:19:03.988Z,31.37
2022-12-25T16:21:39.291Z,27.87
2022-12-25T16:24:06.514Z,28.43
2022-12-25T16:26:34.234Z,30.47
2022-12-25T16:29:06.788Z,29.40
2022-12-25T16:31:34.271Z,30.13
2022-12-25T16:34:01.543Z,28.37
2022-12-25T16:36:28.393Z,27.37
2022-12-25T16:38:55.210Z,27.90
2022-12-25T16:41:22.212Z,29.43
2022-12-25T16:43:48.879Z,29.63
2022-12-25T16:46:18.545Z,32.37
2022-12-25T16:48:45.239Z,28.60
2022-12-25T16:51:14.670Z,30.07
2022-12-25T16:53:41.527Z,28.27
2022-12-25T16:56:10.662Z,30.97
2022-12-25T16:58:37.824Z,30.93
2022-12-25T17:01:09.659Z,33.97
2022-12-25T17:03:36.918Z,32.67
2022-12-25T17:06:04.969Z,37.67
2022-12-25T17:08:31.791Z,39.00
2022-12-25T17:10:58.469Z,39.47
2022-12-25T17:13:25.116Z,41.10
2022-12-25T17:15:51.805Z,37.60
2022-12-25T17:18:21.873Z,38.33
2022-12-25T17:20:52.938Z,40.17
2022-12-25T17:23:22.546Z,46.07
2022-12-25T17:25:49.206Z,41.57
2022-12-25T17:28:16.314Z,90.57
2022-12-25T17:30:42.990Z,82.60
2022-12-25T17:33:09.653Z,56.43
2022-12-25T17:35:37.411Z,52.07
2022-12-25T17:38:04.164Z,44.07
2022-12-25T17:40:30.889Z,45.50
2022-12-25T17:42:57.611Z,48.13
2022-12-25T17:45:24.317Z,46.67
2022-12-25T17:47:54.954Z,43.70
2022-12-25T17:50:25.365Z,44.20
2022-12-25T17:52:52.911Z,46.60
2022-12-25T17:55:19.563Z,64.97
2022-12-25T17:57:46.268Z,59.70
2022-12-25T18:00:14.207Z,71.47
2022-12-25T18:02:43.862Z,67.13
2022-12-25T18:05:10.854Z,64.60
2022-12-25T18:07:37.553Z,60.27
2022-12-25T18:10:04.622Z,63.37
2022-12-25T18:12:31.354Z,59.40
2022-12-25T18:14:58.190Z,58.57
2022-12-25T18:17:24.892Z,58.20
2022-12-25T18:19:51.691Z,58.23
2022-12-25T18:22:19.025Z,60.80
2022-12-25T18:24:45.780Z,63.80
2022-12-25T18:27:12.489Z,70.40
2022-12-25T18:29:39.178Z,69.07
2022-12-25T18:32:06.202Z,70.93
2022-12-25T18:34:33.094Z,78.00
2022-12-25T18:37:03.008Z,71.77
2022-12-25T18:39:31.567Z,75.20
2022-12-25T18:42:17.933Z,72.00
2022-12-25T18:44:45.098Z,77.27
2022-12-25T18:47:11.866Z,86.17
2022-12-25T18:49:38.583Z,67.87
2022-12-25T18:52:50.080Z,63.83
2022-12-25T18:54:54.706Z,77.60
2022-12-25T18:57:22.021Z,95.47
2022-12-25T18:59:48.830Z,80.70
2022-12-25T19:02:16.691Z,87.47
2022-12-25T19:04:46.195Z,101.43
2022-12-25T19:07:13.170Z,89.03
2022-12-25T19:09:40.271Z,96.50
2022-12-25T19:12:07.329Z,91.03
2022-12-25T19:14:47.212Z,79.37
2022-12-25T19:17:15.717Z,86.30
2022-12-25T19:19:42.419Z,78.40
2022-12-25T19:22:12.343Z,70.27
2022-12-25T19:24:41.290Z,73.27
2022-12-25T19:27:08.151Z,76.30
2022-12-25T19:29:34.876Z,69.60
2022-12-25T19:32:01.741Z,75.47
2022-12-25T19:34:28.456Z,72.17
2022-12-25T19:36:55.398Z,69.87
2022-12-25T19:39:22.208Z,66.80
2022-12-25T19:41:48.982Z,72.47
2022-12-25T19:44:15.732Z,66.83
2022-12-25T19:46:42.584Z,74.73
2022-12-25T19:49:13.652Z,70.63
2022-12-25T19:51:43.280Z,73.77
2022-12-25T19:54:13.765Z,75.77
2022-12-25T19:56:41.547Z,76.03
2022-12-25T19:59:08.336Z,84.87
2022-12-25T20:01:35.394Z,85.37
2022-12-25T20:04:02.210Z,85.20
2022-12-25T20:06:31.549Z,81.43
2022-12-25T20:09:02.609Z,89.07
2022-12-25T20:11:31.434Z,82.97
2022-12-25T20:13:58.606Z,88.77
2022-12-25T20:16:25.861Z,85.80
2022-12-25T20:18:53.205Z,89.90
2022-12-25T20:21:21.516Z,84.60
2022-12-25T20:23:50.260Z,86.57
2022-12-25T20:26:19.890Z,84.93
2022-12-25T20:28:47.078Z,77.67
2022-12-25T20:31:19.510Z,75.47
2022-12-25T20:33:46.597Z,74.37
2022-12-25T20:36:14.367Z,72.07
2022-12-25T20:38:41.311Z,78.73
2022-12-25T20:41:28.755Z,80.17
2022-12-25T20:43:56.423Z,77.37
2022-12-25T20:46:24.014Z,85.20
2022-12-25T20:48:51.974Z,101.37
2022-12-25T20:51:24.557Z,100.10
2022-12-25T20:53:51.790Z,106.27
2022-12-25T20:56:21.283Z,92.07
2022-12-25T20:58:48.204Z,88.93
2022-12-25T21:01:17.807Z,88.10
2022-12-25T21:03:47.521Z,86.90
2022-12-25T21:06:17.274Z,94.97
2022-12-25T21:08:44.189Z,79.73
2022-12-25T21:11:11.736Z,92.43
2022-12-25T21:13:41.225Z,131.43
2022-12-25T21:16:11.868Z,106.53
2022-12-25T21:18:39.526Z,101.70
2022-12-25T21:21:07.754Z,101.50
2022-12-25T21:23:36.895Z,94.43
2022-12-25T21:26:20.378Z,94.03
2022-12-25T21:28:48.735Z,81.57
2022-12-25T21:31:15.891Z,86.93
2022-12-25T21:33:51.614Z,84.83
2022-12-25T21:36:29.059Z,85.13
2022-12-25T21:39:07.824Z,84.40
2022-12-25T21:41:37.374Z,84.17
2022-12-25T21:44:04.683Z,80.80
2022-12-25T21:46:31.822Z,72.63
2022-12-25T21:48:59.329Z,71.73
2022-12-25T21:51:48.111Z,63.00
2022-12-25T21:54:15.397Z,55.73
2022-12-25T21:56:45.466Z,52.57
2022-12-25T21:59:17.195Z,54.27
2022-12-25T22:01:44.767Z,51.80
2022-12-25T22:04:13.442Z,45.03
2022-12-25T22:06:59.038Z,45.97
2022-12-25T22:09:26.056Z,46.77
2022-12-25T22:12:11.202Z,47.23
2022-12-25T22:14:54.347Z,42.83
2022-12-25T22:17:44.069Z,36.20
2022-12-25T22:20:14.278Z,31.17
2022-12-25T22:22:41.187Z,27.43
2022-12-25T22:25:09.135Z,29.10
2022-12-25T22:27:37.969Z,28.00
2022-12-25T22:30:06.620Z,24.23
2022-12-25T22:32:33.844Z,24.23
2022-12-25T22:35:00.667Z,22.07
2022-12-25T22:37:27.493Z,23.40
2022-12-25T22:39:54.155Z,20.97
2022-12-25T22:42:20.956Z,22.70
2022-12-25T22:44:47.639Z,21.57
2022-12-25T22:47:14.366Z,24.37
2022-12-25T22:49:41.178Z,26.97
2022-12-25T22:52:09.742Z,21.63
2022-12-25T22:54:36.813Z,22.67
2022-12-25T22:57:04.472Z,21.20
2022-12-25T22:59:33.025Z,21.57
2022-12-25T23:02:00.799Z,20.07
2022-12-25T23:04:29.005Z,20.77
2022-12-25T23:06:56.186Z,20.43
2022-12-25T23:09:27.618Z,21.03
2022-12-25T23:11:56.441Z,20.37
2022-12-25T23:14:38.711Z,20.70
2022-12-25T23:17:30.600Z,20.20
2022-12-25T23:20:17.033Z,23.43
2022-12-25T23:23:02.822Z,20.97
2022-12-25T23:25:48.317Z,20.60
2022-12-25T23:28:35.206Z,21.63
2022-12-25T23:31:02.023Z,20.57
2022-12-25T23:33:28.811Z,20.53
2022-12-25T23:35:55.460Z,20.77
2022-12-25T23:38:22.296Z,18.23
2022-12-25T23:40:48.974Z,20.83
2022-12-25T23:43:15.713Z,20.57
2022-12-25T23:45:42.397Z,19.40
2022-12-25T23:48:09.093Z,19.73
2022-12-25T23:50:35.791Z,20.37
2022-12-25T23:53:02.472Z,18.87
2022-12-25T23:55:29.212Z,20.93
2022-12-25T23:57:55.963Z,21.53
